createdAt,value
2018-12-03T00:02:38.349Z,12.50
2018-12-03T00:07:38.602Z,12.50
2018-12-03T00:12:38.940Z,12.50
2018-12-03T00:17:39.199Z,12.40
2018-12-03T00:22:39.971Z,12.30
2018-12-03T00:27:47.748Z,12.30
2018-12-03T00:32:47.216Z,12.30
2018-12-03T00:37:47.782Z,12.30
2018-12-03T00:42:48.106Z,12.30
2018-12-03T00:47:48.877Z,12.30
2018-12-03T00:52:46.263Z,12.40
2018-12-03T00:57:47.539Z,12.50
2018-12-03T01:02:45.523Z,12.60
2018-12-03T01:07:46.209Z,12.60
2018-12-03T01:12:46.588Z,12.60
2018-12-03T01:17:47.629Z,12.70
2018-12-03T01:22:45.259Z,12.60
2018-12-03T01:27:48.504Z,12.70
2018-12-03T01:32:45.999Z,12.60
2018-12-03T01:37:43.785Z,12.70
2018-12-03T01:42:44.988Z,12.60
2018-12-03T01:47:43.751Z,12.60
2018-12-03T01:52:44.399Z,12.60
2018-12-03T01:57:47.112Z,12.50
2018-12-03T02:02:47.924Z,12.50
2018-12-03T02:07:56.844Z,12.50
2018-12-03T02:12:53.750Z,12.50
2018-12-03T02:17:55.049Z,12.50
2018-12-03T02:22:55.194Z,12.50
2018-12-03T02:27:55.791Z,12.50
2018-12-03T02:32:56.097Z,12.40
2018-12-03T02:38:03.523Z,12.40
2018-12-03T02:43:03.219Z,12.40
2018-12-03T02:48:04.118Z,12.40
2018-12-03T02:53:05.586Z,12.40
2018-12-03T02:58:06.358Z,12.40
2018-12-03T03:03:06.428Z,12.40
2018-12-03T03:08:09.098Z,12.40
2018-12-03T03:13:09.705Z,12.40
2018-12-03T03:18:10.009Z,12.40
2018-12-03T03:23:10.832Z,12.40
2018-12-03T03:28:08.516Z,12.30
2018-12-03T03:33:09.507Z,12.40
2018-12-03T03:38:09.548Z,12.40
2018-12-03T03:43:08.258Z,12.40
2018-12-03T08:38:53.222Z,12.20
2018-12-03T08:43:59.337Z,12.20
2018-12-03T08:49:08.345Z,12.20
2018-12-03T08:54:08.067Z,12.30
2018-12-03T08:59:11.689Z,12.40
2018-12-03T09:04:12.166Z,12.40
2018-12-03T09:09:20.565Z,12.30
2018-12-03T09:14:20.464Z,12.20
2018-12-03T09:19:21.034Z,12.20
2018-12-03T09:24:24.180Z,12.20
2018-12-03T09:29:27.706Z,12.30
2018-12-03T09:34:27.819Z,12.40
2018-12-03T09:39:29.135Z,12.60
2018-12-03T09:44:29.487Z,12.70
2018-12-03T09:49:30.206Z,12.80
2018-12-03T09:54:28.739Z,12.90
2018-12-03T09:59:33.407Z,12.90
2018-12-03T10:04:46.915Z,13.00
2018-12-03T10:09:51.563Z,13.20
2018-12-03T10:14:48.328Z,13.30
2018-12-03T10:19:46.479Z,13.20
2018-12-03T10:24:44.101Z,13.10
2018-12-03T10:29:42.117Z,13.10
2018-12-03T10:34:48.206Z,13.00
2018-12-03T10:39:53.955Z,13.20
2018-12-03T10:45:01.493Z,13.20
2018-12-03T10:50:06.206Z,13.10
2018-12-03T10:55:14.061Z,13.00
2018-12-03T11:00:19.177Z,13.00
2018-12-03T11:05:32.281Z,13.00
2018-12-03T11:10:27.968Z,13.00
2018-12-03T11:15:34.627Z,12.90
2018-12-03T11:20:40.334Z,13.00
2018-12-03T11:25:37.297Z,13.20
2018-12-03T11:30:35.802Z,13.40
2018-12-03T11:35:33.968Z,13.60
2018-12-03T11:40:32.540Z,13.60
2018-12-03T11:45:31.211Z,13.70
2018-12-03T11:50:26.419Z,13.90
2018-12-03T11:55:25.369Z,13.90
2018-12-03T12:00:31.877Z,13.90
2018-12-03T12:05:31.057Z,13.80
2018-12-03T12:10:25.421Z,13.80
2018-12-03T12:15:24.030Z,13.70
2018-12-03T12:20:22.463Z,13.60
2018-12-03T12:25:20.911Z,13.50
2018-12-03T12:30:19.181Z,13.50
2018-12-03T12:35:16.764Z,13.50
2018-12-03T12:40:14.490Z,13.40
2018-12-03T12:45:12.567Z,13.30
2018-12-03T12:49:03.119Z,13.00
2018-12-03T12:54:00.332Z,13.00
2018-12-03T12:58:59.035Z,13.00
2018-12-03T13:03:56.717Z,13.00
2018-12-03T13:08:55.437Z,13.00
2018-12-03T13:13:53.759Z,13.20
2018-12-03T13:18:49.860Z,13.10
2018-12-03T13:23:47.620Z,13.10
2018-12-03T13:28:45.915Z,13.10
2018-12-03T13:33:44.777Z,13.20
2018-12-03T13:38:48.190Z,13.10
2018-12-03T13:43:47.329Z,12.90
2018-12-03T13:48:45.298Z,12.60
2018-12-03T13:53:45.260Z,12.40
2018-12-03T13:58:43.881Z,12.30
2018-12-03T14:03:43.009Z,12.30
2018-12-03T14:08:40.855Z,12.30
2018-12-03T14:13:39.968Z,12.30
2018-12-03T14:18:38.212Z,12.30
2018-12-03T14:23:37.796Z,12.30
2018-12-03T14:28:37.326Z,12.20
2018-12-03T14:33:40.675Z,12.00
2018-12-03T14:38:48.806Z,11.80
2018-12-03T14:43:52.506Z,11.70
2018-12-03T14:48:54.089Z,11.50
2018-12-03T14:53:57.664Z,11.40
2018-12-03T14:59:00.039Z,11.30
2018-12-03T15:04:02.681Z,11.40
2018-12-03T15:09:11.722Z,11.40
2018-12-03T15:14:17.010Z,11.50
2018-12-03T15:19:18.154Z,11.50
2018-12-03T15:24:25.575Z,11.50
2018-12-03T15:29:34.297Z,11.50
2018-12-03T15:34:43.196Z,11.50
2018-12-03T15:39:43.869Z,11.60
2018-12-03T15:44:46.733Z,11.60
2018-12-03T15:49:49.718Z,11.70
2018-12-03T15:54:49.426Z,11.70
2018-12-03T15:59:50.822Z,11.80
2018-12-03T16:04:54.736Z,11.80
2018-12-03T16:09:54.151Z,11.80
2018-12-03T16:14:57.462Z,11.90
2018-12-03T16:20:01.170Z,11.90
2018-12-03T16:25:02.939Z,11.90
2018-12-03T16:36:13.381Z,11.80
2018-12-03T16:41:15.978Z,11.80
2018-12-03T16:46:24.582Z,11.70
2018-12-03T16:51:31.984Z,11.70
2018-12-03T16:56:40.027Z,11.70
2018-12-03T17:01:42.020Z,11.70
2018-12-03T17:06:45.460Z,11.80
2018-12-03T17:11:48.130Z,11.80
2018-12-03T17:16:51.411Z,11.80
2018-12-03T17:21:54.668Z,11.90
2018-12-03T17:26:58.248Z,11.80
2018-12-03T17:32:01.703Z,11.80
2018-12-03T17:37:05.026Z,11.80
2018-12-03T17:42:08.333Z,11.80
2018-12-03T17:47:10.758Z,11.80
2018-12-03T17:52:14.102Z,11.70
2018-12-03T17:57:19.870Z,11.70
2018-12-03T18:02:22.001Z,11.60
2018-12-03T18:07:26.523Z,11.60
2018-12-03T18:12:32.136Z,11.60
2018-12-03T18:17:35.052Z,11.70
2018-12-03T18:22:45.795Z,11.70
2018-12-03T18:27:54.194Z,11.70
2018-12-03T18:33:04.445Z,11.80
2018-12-03T18:38:10.441Z,11.90
2018-12-03T18:43:10.920Z,11.90
2018-12-03T18:48:21.380Z,12.00
2018-12-03T18:53:26.006Z,12.00
2018-12-03T18:58:29.902Z,11.90
2018-12-03T19:03:41.434Z,11.70
2018-12-03T19:08:55.693Z,11.60
2018-12-03T19:14:00.796Z,11.50
2018-12-03T19:19:06.596Z,11.50
2018-12-03T19:24:19.963Z,11.50
2018-12-03T19:29:24.869Z,11.50
2018-12-03T19:34:32.476Z,11.40
2018-12-03T19:39:44.542Z,11.40
2018-12-03T19:44:48.923Z,11.40
2018-12-03T19:49:56.763Z,11.40
2018-12-03T19:55:03.015Z,11.40
2018-12-03T20:00:08.321Z,11.40
2018-12-03T20:05:14.107Z,11.40
2018-12-03T20:10:18.948Z,11.30
2018-12-03T20:15:32.523Z,11.20
2018-12-03T20:20:40.463Z,11.20
2018-12-03T20:25:45.970Z,11.10
2018-12-03T20:30:59.985Z,11.10
2018-12-03T20:36:07.691Z,11.10
2018-12-03T20:41:22.300Z,11.10
2018-12-03T20:46:33.515Z,11.10
2018-12-03T20:51:38.184Z,11.10
2018-12-03T20:56:44.256Z,11.10
2018-12-03T21:01:50.723Z,11.00
2018-12-03T21:06:58.739Z,11.00
2018-12-03T21:12:06.878Z,11.00
2018-12-03T21:17:21.230Z,11.00
2018-12-03T21:22:28.740Z,11.00
2018-12-03T21:27:37.083Z,11.00
2018-12-03T21:32:42.190Z,11.00
2018-12-03T21:37:53.527Z,10.90
2018-12-03T21:42:59.467Z,10.90
2018-12-03T21:48:07.687Z,10.90
2018-12-03T21:53:15.562Z,10.90
2018-12-03T21:58:25.135Z,10.90
2018-12-03T22:03:39.399Z,10.90
2018-12-03T22:08:48.079Z,10.90
2018-12-03T22:14:03.005Z,10.80
2018-12-03T22:19:09.636Z,10.90
2018-12-03T22:24:19.005Z,10.80
2018-12-03T22:29:28.060Z,10.80
2018-12-03T22:34:41.027Z,10.70
2018-12-03T22:39:53.051Z,10.70
2018-12-03T22:45:03.527Z,10.60
2018-12-03T22:50:23.229Z,10.60
2018-12-03T22:55:39.099Z,10.50
2018-12-03T23:00:49.170Z,10.60
2018-12-03T23:06:11.466Z,10.60
2018-12-03T23:11:29.245Z,10.50
2018-12-03T23:16:40.450Z,10.50
2018-12-03T23:22:02.227Z,10.40
2018-12-03T23:27:29.498Z,9.90
